createdAt,value
2022-09-15T00:01:10.352Z,22.33
2022-09-15T00:03:38.287Z,22.29
2022-09-15T00:06:06.398Z,22.01
2022-09-15T00:08:33.719Z,21.97
2022-09-15T00:11:10.144Z,22.65
2022-09-15T00:13:38.684Z,22.45
2022-09-15T00:16:06.803Z,22.39
2022-09-15T00:18:34.926Z,21.52
2022-09-15T00:21:18.328Z,21.87
2022-09-15T00:23:46.551Z,21.53
2022-09-15T00:26:16.818Z,22.10
2022-09-15T00:28:44.513Z,21.79
2022-09-15T00:31:14.574Z,22.21
2022-09-15T00:33:42.142Z,22.43
2022-09-15T00:36:11.288Z,22.29
2022-09-15T00:38:39.572Z,22.26
2022-09-15T00:41:08.586Z,22.21
2022-09-15T00:43:47.978Z,22.37
2022-09-15T00:46:19.985Z,21.46
2022-09-15T00:49:10.417Z,21.85
2022-09-15T00:51:57.737Z,22.00
2022-09-15T00:54:32.798Z,21.86
2022-09-15T00:57:02.826Z,21.90
2022-09-15T00:59:32.212Z,21.67
2022-09-15T01:02:30.537Z,21.59
2022-09-15T01:04:58.884Z,21.74
2022-09-15T01:07:37.854Z,21.82
2022-09-15T01:10:15.445Z,21.56
2022-09-15T01:12:43.223Z,21.90
2022-09-15T01:15:10.797Z,21.83
2022-09-15T01:20:54.768Z,21.29
2022-09-15T01:23:40.360Z,21.06
2022-09-15T01:26:43.253Z,20.96
2022-09-15T01:29:38.189Z,21.19
2022-09-15T01:32:25.897Z,21.06
2022-09-15T01:35:08.370Z,21.49
2022-09-15T01:37:39.674Z,20.40
2022-09-15T01:40:09.774Z,20.85
2022-09-15T01:42:39.092Z,21.07
2022-09-15T01:45:14.291Z,20.86
2022-09-15T01:47:41.940Z,20.35
2022-09-15T01:50:11.615Z,20.63
2022-09-15T01:52:41.582Z,19.96
2022-09-15T01:55:15.027Z,20.25
2022-09-15T01:57:42.804Z,20.77
2022-09-15T02:00:11.130Z,20.46
2022-09-15T02:02:42.987Z,21.22
2022-09-15T02:05:33.974Z,20.85
2022-09-15T02:08:08.749Z,21.65
2022-09-15T02:10:47.060Z,21.67
2022-09-15T02:13:19.518Z,21.95
2022-09-15T02:15:51.749Z,21.64
2022-09-15T02:18:24.312Z,21.83
2022-09-15T02:20:54.855Z,21.82
2022-09-15T02:23:28.775Z,21.58
2022-09-15T02:26:05.049Z,21.83
2022-09-15T02:28:35.764Z,21.79
2022-09-15T02:31:05.835Z,21.79
2022-09-15T02:33:37.502Z,21.50
2022-09-15T02:36:05.190Z,21.82
2022-09-15T02:38:37.330Z,21.64
2022-09-15T02:41:05.822Z,22.02
2022-09-15T02:43:34.088Z,21.79
2022-09-15T02:46:01.468Z,21.57
2022-09-15T02:48:28.778Z,21.31
2022-09-15T02:50:56.363Z,21.80
2022-09-15T02:53:23.815Z,21.91
2022-09-15T02:55:51.135Z,21.57
2022-09-15T02:58:18.790Z,21.92
2022-09-15T03:00:46.142Z,21.90
2022-09-15T03:03:13.511Z,21.66
2022-09-15T03:05:41.059Z,21.31
2022-09-15T03:08:08.401Z,21.60
2022-09-15T03:10:35.719Z,21.31
2022-09-15T03:13:03.365Z,20.99
2022-09-15T03:15:30.730Z,21.02
2022-09-15T03:17:58.048Z,21.30
2022-09-15T03:20:30.417Z,21.59
2022-09-15T03:22:57.897Z,21.60
2022-09-15T03:25:26.961Z,21.27
2022-09-15T03:27:54.816Z,20.84
2022-09-15T03:30:22.257Z,19.97
2022-09-15T03:32:49.623Z,20.81
2022-09-15T03:35:17.233Z,21.13
2022-09-15T03:37:44.580Z,20.75
2022-09-15T03:40:11.979Z,21.58
2022-09-15T03:42:39.630Z,21.23
2022-09-15T03:45:07.439Z,21.50
2022-09-15T03:47:34.780Z,21.15
2022-09-15T03:50:02.493Z,21.27
2022-09-15T03:52:31.933Z,21.38
2022-09-15T03:54:59.425Z,21.79
2022-09-15T03:57:27.029Z,21.63
2022-09-15T03:59:54.368Z,21.53
2022-09-15T04:02:21.752Z,21.51
2022-09-15T04:04:49.491Z,21.89
2022-09-15T04:07:16.913Z,21.88
2022-09-15T04:09:44.251Z,22.20
2022-09-15T04:12:11.859Z,21.89
2022-09-15T04:14:39.172Z,21.52
2022-09-15T04:17:06.582Z,21.32
2022-09-15T04:19:34.157Z,21.42
2022-09-15T04:22:01.448Z,21.77
2022-09-15T04:24:28.780Z,21.66
2022-09-15T04:26:56.387Z,21.81
2022-09-15T04:29:24.745Z,21.70
2022-09-15T04:31:53.041Z,21.51
2022-09-15T04:34:20.671Z,21.25
2022-09-15T04:36:48.204Z,21.42
2022-09-15T04:39:15.542Z,21.37
2022-09-15T04:41:43.132Z,21.35
2022-09-15T04:44:10.469Z,21.57
2022-09-15T04:46:37.892Z,21.65
2022-09-15T04:49:05.541Z,21.53
2022-09-15T04:51:32.857Z,21.42
2022-09-15T04:54:00.235Z,21.43
2022-09-15T04:56:27.957Z,21.47
2022-09-15T04:59:03.227Z,21.25
2022-09-15T05:01:34.114Z,21.55
2022-09-15T05:04:03.999Z,21.60
2022-09-15T05:06:32.230Z,21.52
2022-09-15T05:08:59.720Z,21.52
2022-09-15T05:11:28.305Z,21.46
2022-09-15T05:13:55.952Z,21.57
2022-09-15T05:16:25.181Z,21.57
2022-09-15T05:18:54.500Z,21.35
2022-09-15T05:21:23.766Z,21.50
2022-09-15T05:23:54.175Z,21.34
2022-09-15T05:26:23.611Z,21.39
2022-09-15T05:31:24.979Z,21.32
2022-09-15T05:36:23.403Z,21.44
2022-09-15T05:38:51.578Z,21.33
2022-09-15T05:41:19.920Z,21.62
2022-09-15T05:43:48.415Z,21.60
2022-09-15T05:46:18.335Z,21.68
2022-09-15T05:48:46.436Z,21.63
2022-09-15T05:51:14.559Z,21.73
2022-09-15T05:53:42.035Z,21.64
2022-09-15T05:56:14.237Z,21.48
2022-09-15T05:58:43.368Z,21.50
2022-09-15T06:01:23.090Z,21.62
2022-09-15T06:03:51.345Z,21.82
2022-09-15T06:06:18.955Z,21.21
2022-09-15T06:08:51.745Z,21.15
2022-09-15T06:11:24.731Z,21.59
2022-09-15T06:13:52.310Z,21.13
2022-09-15T06:16:22.080Z,21.41
2022-09-15T06:18:51.078Z,21.54
2022-09-15T06:21:20.913Z,21.40
2022-09-15T06:23:56.261Z,20.87
2022-09-15T06:26:23.896Z,21.27
2022-09-15T06:29:01.880Z,21.62
2022-09-15T06:31:31.638Z,21.97
2022-09-15T06:33:59.825Z,22.63
2022-09-15T06:36:28.833Z,23.08
2022-09-15T06:38:57.007Z,23.14
2022-09-15T06:41:24.716Z,22.83
2022-09-15T06:43:53.146Z,23.17
2022-09-15T06:46:23.415Z,23.11
2022-09-15T06:48:51.996Z,23.32
2022-09-15T06:51:22.355Z,23.44
2022-09-15T06:53:50.222Z,23.40
2022-09-15T06:56:19.876Z,23.37
2022-09-15T06:58:49.302Z,23.30
2022-09-15T07:01:25.770Z,23.25
2022-09-15T07:03:53.194Z,22.93
2022-09-15T07:06:21.085Z,22.97
2022-09-15T07:08:49.789Z,22.75
2022-09-15T07:11:18.211Z,22.96
2022-09-15T07:13:47.315Z,23.27
2022-09-15T07:16:15.440Z,23.34
2022-09-15T07:18:43.650Z,23.59
2022-09-15T07:21:16.732Z,23.66
2022-09-15T07:23:44.589Z,23.48
2022-09-15T07:26:14.481Z,23.47
2022-09-15T07:28:44.256Z,23.76
2022-09-15T07:31:14.824Z,23.70
2022-09-15T07:33:42.432Z,23.82
2022-09-15T07:36:10.238Z,24.09
2022-09-15T07:38:45.827Z,24.23
2022-09-15T07:41:21.444Z,24.65
2022-09-15T07:43:50.498Z,24.41
2022-09-15T07:46:18.938Z,24.25
2022-09-15T07:48:47.371Z,24.53
2022-09-15T07:51:15.676Z,24.38
2022-09-15T07:53:44.263Z,24.34
2022-09-15T07:56:11.988Z,24.07
2022-09-15T07:58:39.814Z,24.23
2022-09-15T08:01:11.248Z,24.47
2022-09-15T08:03:42.824Z,24.27
2022-09-15T08:06:11.014Z,24.56
2022-09-15T08:08:39.107Z,24.92
2022-09-15T08:11:18.435Z,24.08
2022-09-15T08:13:50.993Z,24.32
2022-09-15T08:16:21.892Z,24.64
2022-09-15T08:18:49.947Z,24.81
2022-09-15T08:21:20.335Z,24.91
2022-09-15T08:23:52.887Z,24.74
2022-09-15T08:26:20.641Z,25.16
2022-09-15T08:28:49.074Z,25.14
2022-09-15T08:31:17.377Z,25.21
2022-09-15T08:33:49.816Z,25.41
2022-09-15T08:36:17.851Z,25.07
2022-09-15T08:38:46.105Z,25.81
2022-09-15T08:41:23.794Z,25.88
2022-09-15T08:44:07.865Z,26.02
2022-09-15T08:46:41.221Z,26.17
2022-09-15T08:49:51.441Z,26.31
2022-09-15T08:52:35.690Z,26.30
2022-09-15T08:55:13.818Z,26.34
2022-09-15T08:57:41.194Z,26.24
2022-09-15T09:00:15.133Z,26.19
2022-09-15T09:02:58.708Z,26.64
2022-09-15T09:05:34.595Z,26.24
2022-09-15T09:08:23.090Z,26.70
2022-09-15T09:10:55.925Z,27.04
2022-09-15T09:13:35.204Z,26.73
2022-09-15T09:16:18.082Z,26.82
2022-09-15T09:19:16.576Z,27.15
2022-09-15T09:21:47.653Z,27.49
2022-09-15T09:24:31.440Z,27.62
2022-09-15T09:26:59.010Z,27.56
2022-09-15T09:29:33.495Z,27.70
2022-09-15T09:32:01.903Z,27.31
2022-09-15T09:34:35.499Z,27.47
2022-09-15T09:37:15.447Z,28.25
2022-09-15T09:39:42.815Z,28.11
2022-09-15T09:42:15.031Z,28.28
2022-09-15T09:44:42.581Z,28.05
2022-09-15T09:47:10.202Z,28.56
2022-09-15T09:49:43.972Z,28.67
2022-09-15T09:52:12.328Z,28.37
2022-09-15T09:54:39.589Z,28.22
2022-09-15T09:57:12.769Z,28.00
2022-09-15T09:59:46.074Z,27.67
2022-09-15T10:02:27.206Z,27.97
2022-09-15T10:05:16.006Z,27.94
2022-09-15T10:07:43.888Z,28.15
2022-09-15T10:10:24.922Z,27.98
2022-09-15T10:12:56.029Z,28.03
2022-09-15T10:15:25.708Z,27.76
2022-09-15T10:17:54.091Z,27.80
2022-09-15T10:20:28.234Z,28.33
2022-09-15T10:23:05.126Z,28.04
2022-09-15T10:25:57.580Z,28.23
2022-09-15T10:28:25.895Z,28.12
2022-09-15T10:31:10.715Z,28.82
2022-09-15T10:33:44.910Z,28.88
2022-09-15T10:36:15.046Z,29.04
2022-09-15T10:38:45.817Z,28.90
2022-09-15T10:41:27.119Z,29.07
2022-09-15T10:44:09.748Z,29.04
2022-09-15T10:46:48.898Z,28.99
2022-09-15T10:49:34.752Z,28.74
2022-09-15T10:52:18.379Z,28.76
2022-09-15T10:55:02.014Z,28.71
2022-09-15T10:58:06.511Z,28.72
2022-09-15T11:00:50.348Z,28.18
2022-09-15T11:03:27.483Z,28.08
2022-09-15T11:06:13.298Z,28.18
2022-09-15T11:09:16.197Z,27.84
2022-09-15T11:11:56.132Z,28.11
2022-09-15T11:14:29.573Z,27.97
2022-09-15T11:17:34.532Z,27.94
2022-09-15T11:20:18.079Z,27.55
2022-09-15T11:22:55.148Z,27.62
2022-09-15T11:25:25.332Z,27.59
2022-09-15T11:28:01.313Z,27.52
2022-09-15T11:30:50.669Z,27.60
2022-09-15T11:33:21.818Z,27.26
2022-09-15T11:36:31.344Z,27.44
2022-09-15T11:39:12.561Z,27.45
2022-09-15T11:41:56.397Z,27.11
2022-09-15T11:44:37.667Z,27.14
2022-09-15T11:47:05.025Z,27.17
2022-09-15T11:49:39.137Z,26.95
2022-09-15T11:52:17.191Z,27.21
2022-09-15T11:54:48.741Z,27.18
2022-09-15T11:57:25.634Z,27.15
2022-09-15T12:00:15.384Z,26.97
2022-09-15T12:03:23.385Z,27.06
2022-09-15T12:06:10.028Z,27.40
2022-09-15T12:08:43.542Z,27.14
2022-09-15T12:11:18.745Z,27.46
2022-09-15T12:13:46.631Z,27.04
2022-09-15T12:16:14.856Z,26.69
2022-09-15T12:19:18.608Z,27.01
2022-09-15T12:21:51.900Z,26.99
2022-09-15T12:24:25.504Z,27.14
2022-09-15T12:26:53.122Z,26.59
2022-09-15T12:29:26.450Z,26.36
2022-09-15T12:32:19.727Z,26.80
2022-09-15T12:34:57.708Z,27.22
2022-09-15T12:37:29.182Z,27.03
2022-09-15T12:39:56.681Z,27.28
2022-09-15T12:42:26.357Z,27.01
2022-09-15T12:44:56.737Z,27.00
2022-09-15T12:47:34.058Z,27.43
2022-09-15T12:50:16.571Z,27.03
2022-09-15T12:53:12.677Z,26.38
2022-09-15T12:55:49.592Z,25.28
2022-09-15T12:58:20.000Z,24.87
2022-09-15T13:01:14.280Z,23.72
2022-09-15T13:03:37.878Z,23.48
2022-09-15T13:06:10.912Z,21.50
2022-09-15T13:08:38.140Z,23.20
2022-09-15T13:11:12.665Z,23.04
2022-09-15T13:14:11.547Z,23.37
2022-09-15T13:16:43.759Z,23.41
2022-09-15T13:19:25.676Z,23.66
2022-09-15T13:21:59.169Z,22.55
2022-09-15T13:24:41.854Z,22.58
2022-09-15T13:27:10.018Z,22.45
2022-09-15T13:29:44.642Z,21.91
2022-09-15T13:32:28.040Z,22.01
2022-09-15T13:35:20.941Z,22.66
2022-09-15T13:38:25.058Z,23.03
2022-09-15T13:40:58.345Z,23.14
2022-09-15T13:43:48.235Z,22.52
2022-09-15T13:46:34.146Z,21.63
2022-09-15T13:49:01.696Z,21.82
2022-09-15T13:51:30.114Z,22.36
2022-09-15T13:54:01.380Z,22.11
2022-09-15T13:56:38.945Z,22.02
2022-09-15T13:59:14.117Z,21.61
2022-09-15T14:01:43.102Z,22.26
2022-09-15T14:04:17.014Z,22.86
2022-09-15T14:06:46.695Z,22.83
2022-09-15T14:09:16.893Z,22.12
2022-09-15T14:11:48.001Z,22.97
2022-09-15T14:14:27.839Z,22.03
2022-09-15T14:16:56.485Z,21.98
2022-09-15T14:19:34.158Z,21.65
2022-09-15T14:22:03.661Z,21.81
2022-09-15T14:24:32.523Z,22.41
2022-09-15T14:27:03.375Z,22.95
2022-09-15T14:29:31.167Z,22.13
2022-09-15T14:32:01.938Z,22.03
2022-09-15T14:34:32.191Z,22.42
2022-09-15T14:37:06.622Z,21.08
2022-09-15T14:39:37.354Z,20.95
2022-09-15T14:42:21.803Z,21.03
2022-09-15T14:47:40.200Z,20.81
2022-09-15T14:50:17.530Z,21.45
2022-09-15T14:53:04.070Z,20.55
2022-09-15T14:55:34.303Z,19.56
2022-09-15T14:58:06.874Z,19.55
2022-09-15T15:00:37.879Z,20.42
2022-09-15T15:03:28.501Z,21.33
2022-09-15T15:06:12.800Z,21.53
2022-09-15T15:09:03.250Z,20.59
2022-09-15T15:11:32.025Z,20.52
2022-09-15T15:13:59.926Z,20.84
2022-09-15T15:16:29.327Z,21.13
2022-09-15T15:18:57.486Z,20.87
2022-09-15T15:21:41.662Z,21.46
2022-09-15T15:24:20.703Z,21.79
2022-09-15T15:26:50.097Z,21.83
2022-09-15T15:29:45.883Z,21.63
2022-09-15T15:32:15.678Z,21.29
2022-09-15T15:34:50.618Z,21.62
2022-09-15T15:37:25.354Z,21.52
2022-09-15T15:39:52.705Z,21.79
2022-09-15T15:42:20.531Z,21.74
2022-09-15T15:45:12.979Z,21.55
2022-09-15T15:47:40.547Z,21.28
2022-09-15T15:50:20.924Z,21.48
2022-09-15T15:52:49.645Z,21.47
2022-09-15T15:55:20.668Z,21.17
2022-09-15T15:57:50.476Z,21.79
2022-09-15T16:00:21.297Z,21.90
2022-09-15T16:02:50.781Z,22.01
2022-09-15T16:05:19.423Z,21.98
2022-09-15T16:07:47.880Z,21.57
2022-09-15T16:10:17.600Z,21.34
2022-09-15T16:12:44.916Z,21.64
2022-09-15T16:15:18.209Z,21.67
2022-09-15T16:17:47.015Z,21.65
2022-09-15T16:20:16.110Z,21.99
2022-09-15T16:22:43.871Z,21.54
2022-09-15T16:25:18.546Z,21.59
2022-09-15T16:27:45.773Z,21.53
2022-09-15T16:30:13.343Z,21.66
2022-09-15T16:32:41.294Z,21.74
2022-09-15T16:35:31.714Z,21.23
2022-09-15T16:37:59.322Z,21.63
2022-09-15T16:40:26.742Z,22.15
2022-09-15T16:42:54.249Z,21.88
2022-09-15T16:45:26.320Z,21.87
2022-09-15T16:47:53.660Z,21.45
2022-09-15T16:50:21.035Z,21.29
2022-09-15T16:52:48.649Z,21.55
2022-09-15T16:55:31.262Z,21.54
2022-09-15T16:57:59.948Z,21.91
2022-09-15T17:00:29.065Z,21.85
2022-09-15T17:02:56.738Z,21.66
2022-09-15T17:05:29.269Z,21.50
2022-09-15T17:07:56.797Z,21.31
2022-09-15T17:10:25.064Z,21.40
2022-09-15T17:12:52.795Z,21.03
2022-09-15T17:15:27.030Z,21.12
2022-09-15T17:17:55.123Z,20.78
2022-09-15T17:20:23.145Z,21.03
2022-09-15T17:22:51.494Z,21.09
2022-09-15T17:25:30.301Z,20.96
2022-09-15T17:27:58.700Z,21.48
2022-09-15T17:30:29.743Z,20.94
2022-09-15T17:33:04.137Z,21.15
2022-09-15T17:35:34.398Z,21.38
2022-09-15T17:38:02.886Z,21.34
2022-09-15T17:40:30.575Z,21.39
2022-09-15T17:42:58.482Z,21.56
2022-09-15T17:45:27.423Z,21.73
2022-09-15T17:47:54.900Z,21.30
2022-09-15T17:50:25.336Z,21.45
2022-09-15T17:52:52.964Z,21.62
2022-09-15T17:57:50.142Z,20.82
2022-09-15T18:00:18.929Z,20.59
2022-09-15T18:02:51.982Z,20.60
2022-09-15T18:05:25.192Z,20.87
2022-09-15T18:07:59.539Z,21.01
2022-09-15T18:10:28.557Z,20.95
2022-09-15T18:12:57.140Z,21.05
2022-09-15T18:15:27.167Z,21.43
2022-09-15T18:17:56.948Z,20.32
2022-09-15T18:20:29.364Z,20.23
2022-09-15T18:22:57.218Z,19.93
2022-09-15T18:25:31.252Z,19.56
2022-09-15T18:27:59.897Z,20.49
2022-09-15T18:30:31.246Z,20.56
2022-09-15T18:32:59.513Z,20.80
2022-09-15T18:35:27.254Z,20.43
2022-09-15T18:37:59.255Z,20.71
2022-09-15T18:40:27.935Z,21.14
2022-09-15T18:42:56.729Z,21.01
2022-09-15T18:45:24.296Z,20.87
2022-09-15T18:47:52.630Z,20.40
2022-09-15T18:50:22.691Z,20.11
2022-09-15T18:52:50.125Z,20.05
2022-09-15T18:55:20.160Z,19.74
2022-09-15T18:57:48.890Z,19.76
2022-09-15T19:00:24.549Z,19.69
2022-09-15T19:03:02.668Z,20.18
2022-09-15T19:05:30.476Z,20.02
2022-09-15T19:07:58.640Z,20.10
2022-09-15T19:10:27.276Z,20.10
2022-09-15T19:12:55.003Z,19.88
2022-09-15T19:15:24.083Z,19.87
2022-09-15T19:17:51.955Z,20.09
2022-09-15T19:20:19.585Z,19.99
2022-09-15T19:22:47.827Z,20.16
2022-09-15T19:25:15.659Z,20.44
2022-09-15T19:27:43.140Z,20.52
2022-09-15T19:30:12.172Z,20.76
2022-09-15T19:32:40.805Z,20.42
2022-09-15T19:35:09.298Z,20.22
2022-09-15T19:37:38.784Z,20.27
2022-09-15T19:40:10.167Z,19.62
2022-09-15T19:42:39.118Z,19.86
2022-09-15T19:45:07.658Z,19.83
2022-09-15T19:47:35.647Z,20.29
2022-09-15T19:50:05.687Z,20.25
2022-09-15T19:52:33.288Z,20.74
2022-09-15T19:55:00.668Z,20.65
2022-09-15T19:57:28.377Z,20.35
2022-09-15T19:59:55.751Z,20.38
2022-09-15T20:02:23.102Z,20.32
2022-09-15T20:05:09.061Z,20.40
2022-09-15T20:07:36.473Z,20.14
2022-09-15T20:10:04.978Z,19.73
2022-09-15T20:12:32.240Z,19.65
2022-09-15T20:14:59.510Z,19.95
2022-09-15T20:17:27.782Z,20.59
2022-09-15T20:19:55.173Z,20.57
2022-09-15T20:22:22.885Z,20.00
2022-09-15T20:24:51.552Z,20.25
2022-09-15T20:27:18.907Z,20.47
2022-09-15T20:29:46.204Z,20.18
2022-09-15T20:34:59.180Z,20.38
2022-09-15T20:37:27.325Z,20.01
2022-09-15T20:39:55.189Z,20.21
2022-09-15T20:42:22.681Z,20.46
2022-09-15T20:44:50.244Z,20.38
2022-09-15T20:47:17.803Z,19.90
2022-09-15T20:49:45.104Z,19.79
2022-09-15T20:52:12.699Z,20.15
2022-09-15T20:54:40.609Z,20.57
2022-09-15T20:57:08.898Z,20.28
2022-09-15T20:59:37.164Z,20.23
2022-09-15T21:02:06.044Z,20.27
2022-09-15T21:04:33.751Z,20.45
2022-09-15T21:07:01.348Z,20.46
2022-09-15T21:09:28.823Z,20.20
2022-09-15T21:11:56.199Z,20.29
2022-09-15T21:14:24.472Z,20.44
2022-09-15T21:16:51.829Z,20.12
2022-09-15T21:19:19.192Z,20.27
2022-09-15T21:21:46.766Z,20.04
2022-09-15T21:24:14.075Z,20.22
2022-09-15T21:27:00.387Z,20.03
2022-09-15T21:29:28.762Z,20.37
2022-09-15T21:31:56.246Z,19.94
2022-09-15T21:34:24.008Z,19.53
2022-09-15T21:36:53.538Z,19.85
2022-09-15T21:39:21.407Z,20.24
2022-09-15T21:41:48.757Z,20.17
2022-09-15T21:44:16.396Z,19.98
2022-09-15T21:46:44.967Z,20.03
2022-09-15T21:49:12.271Z,20.11
2022-09-15T21:51:39.933Z,19.49
2022-09-15T21:54:07.250Z,20.19
2022-09-15T21:56:34.577Z,20.21
2022-09-15T21:59:02.906Z,20.11
2022-09-15T22:01:31.890Z,20.17
2022-09-15T22:04:01.288Z,20.03
2022-09-15T22:06:34.296Z,19.65
2022-09-15T22:09:05.223Z,20.16
2022-09-15T22:11:33.364Z,20.02
2022-09-15T22:14:02.825Z,19.76
2022-09-15T22:16:30.566Z,19.73
2022-09-15T22:18:58.003Z,19.91
2022-09-15T22:21:28.383Z,19.88
2022-09-15T22:23:56.923Z,19.85
2022-09-15T22:26:26.787Z,19.80
2022-09-15T22:28:54.679Z,19.55
2022-09-15T22:31:23.631Z,19.92
2022-09-15T22:33:51.581Z,19.88
2022-09-15T22:36:25.141Z,19.71
2022-09-15T22:38:56.210Z,19.97
2022-09-15T22:41:25.838Z,20.02
2022-09-15T22:43:53.153Z,19.55
2022-09-15T22:46:21.002Z,19.80
2022-09-15T22:48:48.434Z,19.56
2022-09-15T22:51:16.012Z,19.74
2022-09-15T22:53:43.631Z,19.69
2022-09-15T22:56:17.152Z,19.70
2022-09-15T22:58:44.698Z,19.50
2022-09-15T23:01:18.203Z,19.56
2022-09-15T23:03:52.861Z,19.49
2022-09-15T23:06:21.131Z,19.75
2022-09-15T23:08:57.245Z,19.37
2022-09-15T23:11:25.742Z,19.35
2022-09-15T23:13:53.946Z,19.51
2022-09-15T23:16:23.121Z,19.51
2022-09-15T23:18:51.034Z,19.34
2022-09-15T23:21:18.922Z,19.01
2022-09-15T23:23:48.862Z,18.97
2022-09-15T23:26:18.511Z,18.67
2022-09-15T23:28:46.253Z,19.53
2022-09-15T23:31:13.817Z,18.82
2022-09-15T23:33:41.657Z,19.05
2022-09-15T23:36:12.079Z,19.20
2022-09-15T23:38:40.798Z,19.54
2022-09-15T23:41:08.726Z,19.24
2022-09-15T23:43:36.592Z,19.01
2022-09-15T23:46:04.417Z,19.34
2022-09-15T23:48:32.503Z,18.93
2022-09-15T23:51:00.382Z,19.19
2022-09-15T23:53:28.248Z,19.26
2022-09-15T23:55:55.621Z,19.66
2022-09-15T23:58:23.251Z,19.38
